<?xml version="1.0" encoding="UTF-8" standalone="no" ?>
<gpx xmlns="http://www.topografix.com/GPX/1/1" xmlns:xsi="http://www.w3.org/2001/XMLSchema-instance" xsi:schemaLocation="http://www.topografix.com/GPX/1/1 http://www.topografix.com/GPX/1/1/gpx.xsd" version="1.1" creator="VisuGPX - https://www.visugpx.com">
  <metadata>
    <name>Circuit du vallon</name>
    <desc><![CDATA[Marche Soppe Circuit du vallon 2016]]></desc>
  </metadata>
  <trk>
    <name><![CDATA[Circuit du vallon_1]]></name>
    <trkseg>
      <trkpt lat="47.73136" lon="7.05239">
        <ele>379</ele>
        <time>2016-08-07T07:18:10Z</time>
      </trkpt>
      <trkpt lat="47.73136" lon="7.05239">
        <ele>445</ele>
        <time>2016-08-07T07:18:15Z</time>
      </trkpt>
      <trkpt lat="47.73125" lon="7.05225">
        <ele>432</ele>
        <time>2016-08-07T07:21:35Z</time>
      </trkpt>
      <trkpt lat="47.73109" lon="7.05234">
        <ele>429</ele>
        <time>2016-08-07T07:21:51Z</time>
      </trkpt>
      <trkpt lat="47.73091" lon="7.05253">
        <ele>433</ele>
        <time>2016-08-07T07:22:08Z</time>
      </trkpt>
      <trkpt lat="47.73077" lon="7.05266">
        <ele>432</ele>
        <time>2016-08-07T07:22:21Z</time>
      </trkpt>
      <trkpt lat="47.73065" lon="7.05283">
        <ele>434</ele>
        <time>2016-08-07T07:22:34Z</time>
      </trkpt>
      <trkpt lat="47.73054" lon="7.05294">
        <ele>434</ele>
        <time>2016-08-07T07:22:43Z</time>
      </trkpt>
      <trkpt lat="47.7304" lon="7.05302">
        <ele>436</ele>
        <time>2016-08-07T07:22:56Z</time>
      </trkpt>
      <trkpt lat="47.73033" lon="7.05283">
        <ele>435</ele>
        <time>2016-08-07T07:23:08Z</time>
      </trkpt>
      <trkpt lat="47.73032" lon="7.05263">
        <ele>434</ele>
        <time>2016-08-07T07:23:18Z</time>
      </trkpt>
      <trkpt lat="47.73032" lon="7.05235">
        <ele>438</ele>
        <time>2016-08-07T07:23:33Z</time>
      </trkpt>
      <trkpt lat="47.73032" lon="7.052">
        <ele>435</ele>
        <time>2016-08-07T07:23:50Z</time>
      </trkpt>
      <trkpt lat="47.73032" lon="7.05175">
        <ele>432</ele>
        <time>2016-08-07T07:24:07Z</time>
      </trkpt>
      <trkpt lat="47.73029" lon="7.05143">
        <ele>431</ele>
        <time>2016-08-07T07:24:22Z</time>
      </trkpt>
      <trkpt lat="47.7303" lon="7.05128">
        <ele>430</ele>
        <time>2016-08-07T07:24:30Z</time>
      </trkpt>
      <trkpt lat="47.73029" lon="7.05101">
        <ele>431</ele>
        <time>2016-08-07T07:24:43Z</time>
      </trkpt>
      <trkpt lat="47.73028" lon="7.0507">
        <ele>430</ele>
        <time>2016-08-07T07:24:58Z</time>
      </trkpt>
      <trkpt lat="47.73025" lon="7.05046">
        <ele>431</ele>
        <time>2016-08-07T07:25:11Z</time>
      </trkpt>
      <trkpt lat="47.73028" lon="7.0501">
        <ele>434</ele>
        <time>2016-08-07T07:25:30Z</time>
      </trkpt>
      <trkpt lat="47.73023" lon="7.04977">
        <ele>435</ele>
        <time>2016-08-07T07:25:48Z</time>
      </trkpt>
      <trkpt lat="47.73016" lon="7.04962">
        <ele>433</ele>
        <time>2016-08-07T07:25:59Z</time>
      </trkpt>
      <trkpt lat="47.73005" lon="7.04939">
        <ele>433</ele>
        <time>2016-08-07T07:26:13Z</time>
      </trkpt>
      <trkpt lat="47.72992" lon="7.04921">
        <ele>430</ele>
        <time>2016-08-07T07:26:26Z</time>
      </trkpt>
      <trkpt lat="47.72975" lon="7.04911">
        <ele>432</ele>
        <time>2016-08-07T07:26:41Z</time>
      </trkpt>
      <trkpt lat="47.72957" lon="7.0489">
        <ele>431</ele>
        <time>2016-08-07T07:26:57Z</time>
      </trkpt>
      <trkpt lat="47.72943" lon="7.04878">
        <ele>426</ele>
        <time>2016-08-07T07:27:10Z</time>
      </trkpt>
      <trkpt lat="47.72931" lon="7.04866">
        <ele>427</ele>
        <time>2016-08-07T07:27:23Z</time>
      </trkpt>
      <trkpt lat="47.72931" lon="7.04865">
        <ele>429</ele>
        <time>2016-08-07T07:27:31Z</time>
      </trkpt>
      <trkpt lat="47.72909" lon="7.0484">
        <ele>434</ele>
        <time>2016-08-07T07:28:03Z</time>
      </trkpt>
      <trkpt lat="47.72892" lon="7.04826">
        <ele>431</ele>
        <time>2016-08-07T07:28:20Z</time>
      </trkpt>
      <trkpt lat="47.72882" lon="7.04816">
        <ele>429</ele>
        <time>2016-08-07T07:28:30Z</time>
      </trkpt>
      <trkpt lat="47.72867" lon="7.048">
        <ele>426</ele>
        <time>2016-08-07T07:28:45Z</time>
      </trkpt>
      <trkpt lat="47.72853" lon="7.04783">
        <ele>422</ele>
        <time>2016-08-07T07:28:59Z</time>
      </trkpt>
      <trkpt lat="47.72835" lon="7.04769">
        <ele>425</ele>
        <time>2016-08-07T07:29:13Z</time>
      </trkpt>
      <trkpt lat="47.72829" lon="7.04759">
        <ele>430</ele>
        <time>2016-08-07T07:29:22Z</time>
      </trkpt>
      <trkpt lat="47.72809" lon="7.04741">
        <ele>430</ele>
        <time>2016-08-07T07:29:39Z</time>
      </trkpt>
      <trkpt lat="47.728" lon="7.04726">
        <ele>428</ele>
        <time>2016-08-07T07:29:50Z</time>
      </trkpt>
      <trkpt lat="47.72782" lon="7.04711">
        <ele>429</ele>
        <time>2016-08-07T07:30:07Z</time>
      </trkpt>
      <trkpt lat="47.72767" lon="7.04695">
        <ele>431</ele>
        <time>2016-08-07T07:30:24Z</time>
      </trkpt>
      <trkpt lat="47.72748" lon="7.0468">
        <ele>435</ele>
        <time>2016-08-07T07:30:38Z</time>
      </trkpt>
      <trkpt lat="47.72732" lon="7.04663">
        <ele>440</ele>
        <time>2016-08-07T07:30:53Z</time>
      </trkpt>
      <trkpt lat="47.72716" lon="7.04647">
        <ele>440</ele>
        <time>2016-08-07T07:31:06Z</time>
      </trkpt>
      <trkpt lat="47.72707" lon="7.04641">
        <ele>441</ele>
        <time>2016-08-07T07:31:13Z</time>
      </trkpt>
      <trkpt lat="47.72692" lon="7.04629">
        <ele>443</ele>
        <time>2016-08-07T07:31:29Z</time>
      </trkpt>
      <trkpt lat="47.72676" lon="7.04613">
        <ele>444</ele>
        <time>2016-08-07T07:31:47Z</time>
      </trkpt>
      <trkpt lat="47.72648" lon="7.046">
        <ele>435</ele>
        <time>2016-08-07T07:32:06Z</time>
      </trkpt>
      <trkpt lat="47.72629" lon="7.04578">
        <ele>436</ele>
        <time>2016-08-07T07:32:24Z</time>
      </trkpt>
      <trkpt lat="47.72618" lon="7.04564">
        <ele>436</ele>
        <time>2016-08-07T07:32:36Z</time>
      </trkpt>
      <trkpt lat="47.72602" lon="7.04559">
        <ele>445</ele>
        <time>2016-08-07T07:32:49Z</time>
      </trkpt>
      <trkpt lat="47.72587" lon="7.04538">
        <ele>448</ele>
        <time>2016-08-07T07:33:01Z</time>
      </trkpt>
      <trkpt lat="47.72571" lon="7.04517">
        <ele>445</ele>
        <time>2016-08-07T07:33:17Z</time>
      </trkpt>
      <trkpt lat="47.72553" lon="7.04504">
        <ele>445</ele>
        <time>2016-08-07T07:33:37Z</time>
      </trkpt>
      <trkpt lat="47.72533" lon="7.04482">
        <ele>453</ele>
        <time>2016-08-07T07:33:54Z</time>
      </trkpt>
      <trkpt lat="47.72515" lon="7.04465">
        <ele>454</ele>
        <time>2016-08-07T07:34:09Z</time>
      </trkpt>
      <trkpt lat="47.72501" lon="7.04447">
        <ele>464</ele>
        <time>2016-08-07T07:34:24Z</time>
      </trkpt>
      <trkpt lat="47.72487" lon="7.04424">
        <ele>464</ele>
        <time>2016-08-07T07:34:35Z</time>
      </trkpt>
      <trkpt lat="47.72475" lon="7.04416">
        <ele>465</ele>
        <time>2016-08-07T07:34:43Z</time>
      </trkpt>
      <trkpt lat="47.72466" lon="7.04402">
        <ele>463</ele>
        <time>2016-08-07T07:34:49Z</time>
      </trkpt>
      <trkpt lat="47.72457" lon="7.04391">
        <ele>464</ele>
        <time>2016-08-07T07:34:55Z</time>
      </trkpt>
      <trkpt lat="47.72456" lon="7.04388">
        <ele>462</ele>
        <time>2016-08-07T07:34:58Z</time>
      </trkpt>
      <trkpt lat="47.72457" lon="7.04391">
        <ele>464</ele>
        <time>2016-08-07T07:35:06Z</time>
      </trkpt>
      <trkpt lat="47.72443" lon="7.04418">
        <ele>463</ele>
        <time>2016-08-07T07:35:14Z</time>
      </trkpt>
      <trkpt lat="47.7243" lon="7.04436">
        <ele>465</ele>
        <time>2016-08-07T07:35:28Z</time>
      </trkpt>
      <trkpt lat="47.72427" lon="7.0445">
        <ele>462</ele>
        <time>2016-08-07T07:35:39Z</time>
      </trkpt>
      <trkpt lat="47.72414" lon="7.04477">
        <ele>467</ele>
        <time>2016-08-07T07:35:58Z</time>
      </trkpt>
      <trkpt lat="47.72407" lon="7.04496">
        <ele>466</ele>
        <time>2016-08-07T07:36:09Z</time>
      </trkpt>
      <trkpt lat="47.72403" lon="7.04501">
        <ele>464</ele>
        <time>2016-08-07T07:36:12Z</time>
      </trkpt>
      <trkpt lat="47.72396" lon="7.04509">
        <ele>465</ele>
        <time>2016-08-07T07:36:24Z</time>
      </trkpt>
      <trkpt lat="47.72386" lon="7.04526">
        <ele>467</ele>
        <time>2016-08-07T07:36:40Z</time>
      </trkpt>
      <trkpt lat="47.72386" lon="7.04526">
        <ele>467</ele>
        <time>2016-08-07T07:36:48Z</time>
      </trkpt>
      <trkpt lat="47.72386" lon="7.04526">
        <ele>467</ele>
        <time>2016-08-07T07:36:49Z</time>
      </trkpt>
      <trkpt lat="47.72373" lon="7.04543">
        <ele>462</ele>
        <time>2016-08-07T07:37:14Z</time>
      </trkpt>
      <trkpt lat="47.72362" lon="7.04562">
        <ele>460</ele>
        <time>2016-08-07T07:37:24Z</time>
      </trkpt>
      <trkpt lat="47.72358" lon="7.04574">
        <ele>460</ele>
        <time>2016-08-07T07:37:32Z</time>
      </trkpt>
      <trkpt lat="47.72343" lon="7.04602">
        <ele>466</ele>
        <time>2016-08-07T07:37:50Z</time>
      </trkpt>
      <trkpt lat="47.72328" lon="7.04626">
        <ele>475</ele>
        <time>2016-08-07T07:38:07Z</time>
      </trkpt>
      <trkpt lat="47.72326" lon="7.04635">
        <ele>476</ele>
        <time>2016-08-07T07:38:14Z</time>
      </trkpt>
      <trkpt lat="47.72317" lon="7.04645">
        <ele>478</ele>
        <time>2016-08-07T07:38:29Z</time>
      </trkpt>
      <trkpt lat="47.72317" lon="7.04645">
        <ele>478</ele>
        <time>2016-08-07T07:38:36Z</time>
      </trkpt>
      <trkpt lat="47.72309" lon="7.04657">
        <ele>473</ele>
        <time>2016-08-07T07:38:43Z</time>
      </trkpt>
      <trkpt lat="47.72295" lon="7.04695">
        <ele>465</ele>
        <time>2016-08-07T07:39:23Z</time>
      </trkpt>
      <trkpt lat="47.7229" lon="7.04696">
        <ele>467</ele>
        <time>2016-08-07T07:39:27Z</time>
      </trkpt>
      <trkpt lat="47.72289" lon="7.04691">
        <ele>463</ele>
        <time>2016-08-07T07:39:35Z</time>
      </trkpt>
      <trkpt lat="47.72278" lon="7.0472">
        <ele>464</ele>
        <time>2016-08-07T07:40:04Z</time>
      </trkpt>
      <trkpt lat="47.72268" lon="7.04731">
        <ele>465</ele>
        <time>2016-08-07T07:40:19Z</time>
      </trkpt>
      <trkpt lat="47.72256" lon="7.0476">
        <ele>466</ele>
        <time>2016-08-07T07:40:35Z</time>
      </trkpt>
      <trkpt lat="47.7224" lon="7.0478">
        <ele>467</ele>
        <time>2016-08-07T07:40:54Z</time>
      </trkpt>
      <trkpt lat="47.72226" lon="7.04816">
        <ele>454</ele>
        <time>2016-08-07T07:41:42Z</time>
      </trkpt>
      <trkpt lat="47.72227" lon="7.04823">
        <ele>453</ele>
        <time>2016-08-07T07:41:46Z</time>
      </trkpt>
      <trkpt lat="47.7223" lon="7.04827">
        <ele>454</ele>
        <time>2016-08-07T07:41:52Z</time>
      </trkpt>
      <trkpt lat="47.72231" lon="7.04854">
        <ele>452</ele>
        <time>2016-08-07T07:42:15Z</time>
      </trkpt>
      <trkpt lat="47.72234" lon="7.04877">
        <ele>457</ele>
        <time>2016-08-07T07:42:25Z</time>
      </trkpt>
      <trkpt lat="47.72237" lon="7.04905">
        <ele>458</ele>
        <time>2016-08-07T07:42:39Z</time>
      </trkpt>
      <trkpt lat="47.72239" lon="7.04927">
        <ele>463</ele>
        <time>2016-08-07T07:42:51Z</time>
      </trkpt>
      <trkpt lat="47.72239" lon="7.04929">
        <ele>463</ele>
        <time>2016-08-07T07:42:59Z</time>
      </trkpt>
      <trkpt lat="47.72233" lon="7.04956">
        <ele>462</ele>
        <time>2016-08-07T07:43:21Z</time>
      </trkpt>
      <trkpt lat="47.72231" lon="7.04979">
        <ele>466</ele>
        <time>2016-08-07T07:43:30Z</time>
      </trkpt>
      <trkpt lat="47.72238" lon="7.04995">
        <ele>466</ele>
        <time>2016-08-07T07:43:36Z</time>
      </trkpt>
      <trkpt lat="47.72235" lon="7.05">
        <ele>469</ele>
        <time>2016-08-07T07:43:44Z</time>
      </trkpt>
      <trkpt lat="47.72238" lon="7.05024">
        <ele>461</ele>
        <time>2016-08-07T07:45:44Z</time>
      </trkpt>
      <trkpt lat="47.7223" lon="7.05045">
        <ele>465</ele>
        <time>2016-08-07T07:45:53Z</time>
      </trkpt>
      <trkpt lat="47.72228" lon="7.05062">
        <ele>465</ele>
        <time>2016-08-07T07:45:58Z</time>
      </trkpt>
      <trkpt lat="47.72232" lon="7.05069">
        <ele>465</ele>
        <time>2016-08-07T07:45:59Z</time>
      </trkpt>
      <trkpt lat="47.72233" lon="7.05085">
        <ele>470</ele>
        <time>2016-08-07T07:46:10Z</time>
      </trkpt>
      <trkpt lat="47.72232" lon="7.05096">
        <ele>469</ele>
        <time>2016-08-07T07:46:19Z</time>
      </trkpt>
      <trkpt lat="47.72234" lon="7.05098">
        <ele>467</ele>
        <time>2016-08-07T07:46:28Z</time>
      </trkpt>
      <trkpt lat="47.72218" lon="7.05101">
        <ele>468</ele>
        <time>2016-08-07T07:47:01Z</time>
      </trkpt>
      <trkpt lat="47.72201" lon="7.05111">
        <ele>467</ele>
        <time>2016-08-07T07:47:12Z</time>
      </trkpt>
      <trkpt lat="47.72194" lon="7.05121">
        <ele>467</ele>
        <time>2016-08-07T07:47:18Z</time>
      </trkpt>
      <trkpt lat="47.72185" lon="7.05137">
        <ele>468</ele>
        <time>2016-08-07T07:47:31Z</time>
      </trkpt>
      <trkpt lat="47.72179" lon="7.05153">
        <ele>464</ele>
        <time>2016-08-07T07:47:44Z</time>
      </trkpt>
      <trkpt lat="47.72153" lon="7.05179">
        <ele>463</ele>
        <time>2016-08-07T07:48:15Z</time>
      </trkpt>
      <trkpt lat="47.72147" lon="7.05191">
        <ele>465</ele>
        <time>2016-08-07T07:48:24Z</time>
      </trkpt>
      <trkpt lat="47.72155" lon="7.05226">
        <ele>462</ele>
        <time>2016-08-07T07:48:40Z</time>
      </trkpt>
      <trkpt lat="47.7216" lon="7.05239">
        <ele>459</ele>
        <time>2016-08-07T07:48:50Z</time>
      </trkpt>
      <trkpt lat="47.7216" lon="7.05239">
        <ele>459</ele>
        <time>2016-08-07T07:48:59Z</time>
      </trkpt>
      <trkpt lat="47.72157" lon="7.05246">
        <ele>457</ele>
        <time>2016-08-07T07:49:01Z</time>
      </trkpt>
      <trkpt lat="47.72149" lon="7.05283">
        <ele>459</ele>
        <time>2016-08-07T07:50:18Z</time>
      </trkpt>
      <trkpt lat="47.72157" lon="7.05299">
        <ele>458</ele>
        <time>2016-08-07T07:50:31Z</time>
      </trkpt>
      <trkpt lat="47.72145" lon="7.05339">
        <ele>459</ele>
        <time>2016-08-07T07:51:21Z</time>
      </trkpt>
      <trkpt lat="47.72136" lon="7.05348">
        <ele>461</ele>
        <time>2016-08-07T07:51:30Z</time>
      </trkpt>
      <trkpt lat="47.7212" lon="7.05374">
        <ele>466</ele>
        <time>2016-08-07T07:51:44Z</time>
      </trkpt>
      <trkpt lat="47.72116" lon="7.05382">
        <ele>465</ele>
        <time>2016-08-07T07:51:57Z</time>
      </trkpt>
      <trkpt lat="47.72104" lon="7.05395">
        <ele>457</ele>
        <time>2016-08-07T07:52:08Z</time>
      </trkpt>
      <trkpt lat="47.72096" lon="7.05403">
        <ele>453</ele>
        <time>2016-08-07T07:52:17Z</time>
      </trkpt>
      <trkpt lat="47.7208" lon="7.05423">
        <ele>452</ele>
        <time>2016-08-07T07:52:36Z</time>
      </trkpt>
      <trkpt lat="47.72065" lon="7.05441">
        <ele>451</ele>
        <time>2016-08-07T07:52:53Z</time>
      </trkpt>
      <trkpt lat="47.72051" lon="7.0546">
        <ele>456</ele>
        <time>2016-08-07T07:53:13Z</time>
      </trkpt>
      <trkpt lat="47.72043" lon="7.05475">
        <ele>456</ele>
        <time>2016-08-07T07:53:26Z</time>
      </trkpt>
      <trkpt lat="47.72035" lon="7.05487">
        <ele>453</ele>
        <time>2016-08-07T07:53:36Z</time>
      </trkpt>
      <trkpt lat="47.72025" lon="7.05499">
        <ele>450</ele>
        <time>2016-08-07T07:53:44Z</time>
      </trkpt>
      <trkpt lat="47.72016" lon="7.05515">
        <ele>451</ele>
        <time>2016-08-07T07:53:55Z</time>
      </trkpt>
      <trkpt lat="47.72003" lon="7.05536">
        <ele>456</ele>
        <time>2016-08-07T07:54:13Z</time>
      </trkpt>
      <trkpt lat="47.71993" lon="7.05561">
        <ele>454</ele>
        <time>2016-08-07T07:54:28Z</time>
      </trkpt>
      <trkpt lat="47.71986" lon="7.0557">
        <ele>451</ele>
        <time>2016-08-07T07:54:40Z</time>
      </trkpt>
      <trkpt lat="47.71982" lon="7.05574">
        <ele>451</ele>
        <time>2016-08-07T07:54:43Z</time>
      </trkpt>
      <trkpt lat="47.71981" lon="7.05581">
        <ele>450</ele>
        <time>2016-08-07T07:54:51Z</time>
      </trkpt>
      <trkpt lat="47.7197" lon="7.05598">
        <ele>448</ele>
        <time>2016-08-07T07:55:06Z</time>
      </trkpt>
      <trkpt lat="47.71963" lon="7.05608">
        <ele>448</ele>
        <time>2016-08-07T07:55:12Z</time>
      </trkpt>
      <trkpt lat="47.7195" lon="7.05628">
        <ele>448</ele>
        <time>2016-08-07T07:55:26Z</time>
      </trkpt>
      <trkpt lat="47.7194" lon="7.05637">
        <ele>449</ele>
        <time>2016-08-07T07:55:31Z</time>
      </trkpt>
      <trkpt lat="47.71938" lon="7.0565">
        <ele>454</ele>
        <time>2016-08-07T07:55:41Z</time>
      </trkpt>
      <trkpt lat="47.71922" lon="7.0567">
        <ele>456</ele>
        <time>2016-08-07T07:55:57Z</time>
      </trkpt>
      <trkpt lat="47.71912" lon="7.05693">
        <ele>456</ele>
        <time>2016-08-07T07:56:12Z</time>
      </trkpt>
      <trkpt lat="47.71906" lon="7.05709">
        <ele>453</ele>
        <time>2016-08-07T07:56:19Z</time>
      </trkpt>
      <trkpt lat="47.71898" lon="7.05719">
        <ele>454</ele>
        <time>2016-08-07T07:56:22Z</time>
      </trkpt>
      <trkpt lat="47.71891" lon="7.05727">
        <ele>452</ele>
        <time>2016-08-07T07:56:33Z</time>
      </trkpt>
      <trkpt lat="47.71881" lon="7.05751">
        <ele>452</ele>
        <time>2016-08-07T07:56:49Z</time>
      </trkpt>
      <trkpt lat="47.71869" lon="7.05763">
        <ele>451</ele>
        <time>2016-08-07T07:56:59Z</time>
      </trkpt>
      <trkpt lat="47.71863" lon="7.05779">
        <ele>447</ele>
        <time>2016-08-07T07:57:12Z</time>
      </trkpt>
      <trkpt lat="47.71848" lon="7.05803">
        <ele>446</ele>
        <time>2016-08-07T07:57:25Z</time>
      </trkpt>
      <trkpt lat="47.71843" lon="7.05808">
        <ele>449</ele>
        <time>2016-08-07T07:57:29Z</time>
      </trkpt>
      <trkpt lat="47.7184" lon="7.05806">
        <ele>448</ele>
        <time>2016-08-07T07:57:38Z</time>
      </trkpt>
      <trkpt lat="47.71827" lon="7.05823">
        <ele>443</ele>
        <time>2016-08-07T07:58:05Z</time>
      </trkpt>
      <trkpt lat="47.71814" lon="7.05846">
        <ele>444</ele>
        <time>2016-08-07T07:58:18Z</time>
      </trkpt>
      <trkpt lat="47.71799" lon="7.05869">
        <ele>447</ele>
        <time>2016-08-07T07:58:30Z</time>
      </trkpt>
      <trkpt lat="47.71795" lon="7.05873">
        <ele>451</ele>
        <time>2016-08-07T07:58:34Z</time>
      </trkpt>
      <trkpt lat="47.71788" lon="7.05882">
        <ele>448</ele>
        <time>2016-08-07T07:58:44Z</time>
      </trkpt>
      <trkpt lat="47.71782" lon="7.05897">
        <ele>453</ele>
        <time>2016-08-07T07:58:55Z</time>
      </trkpt>
      <trkpt lat="47.71771" lon="7.05916">
        <ele>456</ele>
        <time>2016-08-07T07:59:08Z</time>
      </trkpt>
      <trkpt lat="47.71761" lon="7.0592">
        <ele>450</ele>
        <time>2016-08-07T07:59:21Z</time>
      </trkpt>
      <trkpt lat="47.71754" lon="7.05938">
        <ele>456</ele>
        <time>2016-08-07T07:59:33Z</time>
      </trkpt>
      <trkpt lat="47.71755" lon="7.05942">
        <ele>456</ele>
        <time>2016-08-07T07:59:41Z</time>
      </trkpt>
      <trkpt lat="47.71741" lon="7.05965">
        <ele>455</ele>
        <time>2016-08-07T08:00:06Z</time>
      </trkpt>
      <trkpt lat="47.71738" lon="7.0598">
        <ele>448</ele>
        <time>2016-08-07T08:00:14Z</time>
      </trkpt>
      <trkpt lat="47.71736" lon="7.05987">
        <ele>445</ele>
        <time>2016-08-07T08:00:22Z</time>
      </trkpt>
      <trkpt lat="47.71728" lon="7.06012">
        <ele>448</ele>
        <time>2016-08-07T08:00:36Z</time>
      </trkpt>
      <trkpt lat="47.71726" lon="7.06021">
        <ele>448</ele>
        <time>2016-08-07T08:00:40Z</time>
      </trkpt>
      <trkpt lat="47.7172" lon="7.06026">
        <ele>447</ele>
        <time>2016-08-07T08:00:50Z</time>
      </trkpt>
      <trkpt lat="47.71708" lon="7.06058">
        <ele>441</ele>
        <time>2016-08-07T08:01:07Z</time>
      </trkpt>
      <trkpt lat="47.71704" lon="7.06073">
        <ele>443</ele>
        <time>2016-08-07T08:01:14Z</time>
      </trkpt>
      <trkpt lat="47.71694" lon="7.06086">
        <ele>448</ele>
        <time>2016-08-07T08:01:27Z</time>
      </trkpt>
      <trkpt lat="47.71691" lon="7.06108">
        <ele>449</ele>
        <time>2016-08-07T08:01:44Z</time>
      </trkpt>
      <trkpt lat="47.71696" lon="7.06125">
        <ele>451</ele>
        <time>2016-08-07T08:01:54Z</time>
      </trkpt>
      <trkpt lat="47.71695" lon="7.06147">
        <ele>449</ele>
        <time>2016-08-07T08:02:09Z</time>
      </trkpt>
      <trkpt lat="47.71686" lon="7.06174">
        <ele>449</ele>
        <time>2016-08-07T08:02:26Z</time>
      </trkpt>
      <trkpt lat="47.71681" lon="7.06185">
        <ele>450</ele>
        <time>2016-08-07T08:02:39Z</time>
      </trkpt>
      <trkpt lat="47.71655" lon="7.06214">
        <ele>452</ele>
        <time>2016-08-07T08:03:31Z</time>
      </trkpt>
      <trkpt lat="47.71654" lon="7.06226">
        <ele>447</ele>
        <time>2016-08-07T08:03:38Z</time>
      </trkpt>
      <trkpt lat="47.71654" lon="7.06226">
        <ele>447</ele>
        <time>2016-08-07T08:03:43Z</time>
      </trkpt>
      <trkpt lat="47.71654" lon="7.06226">
        <ele>447</ele>
        <time>2016-08-07T08:03:44Z</time>
      </trkpt>
      <trkpt lat="47.7167" lon="7.0622">
        <ele>445</ele>
        <time>2016-08-07T08:04:22Z</time>
      </trkpt>
      <trkpt lat="47.71688" lon="7.06223">
        <ele>444</ele>
        <time>2016-08-07T08:04:31Z</time>
      </trkpt>
      <trkpt lat="47.71688" lon="7.06223">
        <ele>444</ele>
        <time>2016-08-07T08:04:36Z</time>
      </trkpt>
      <trkpt lat="47.71688" lon="7.06223">
        <ele>444</ele>
        <time>2016-08-07T08:04:37Z</time>
      </trkpt>
      <trkpt lat="47.71695" lon="7.06237">
        <ele>436</ele>
        <time>2016-08-07T08:04:46Z</time>
      </trkpt>
      <trkpt lat="47.717" lon="7.06275">
        <ele>428</ele>
        <time>2016-08-07T08:05:16Z</time>
      </trkpt>
      <trkpt lat="47.71702" lon="7.06296">
        <ele>427</ele>
        <time>2016-08-07T08:05:31Z</time>
      </trkpt>
      <trkpt lat="47.7171" lon="7.06312">
        <ele>426</ele>
        <time>2016-08-07T08:05:46Z</time>
      </trkpt>
      <trkpt lat="47.71717" lon="7.06331">
        <ele>426</ele>
        <time>2016-08-07T08:05:57Z</time>
      </trkpt>
      <trkpt lat="47.71726" lon="7.06358">
        <ele>433</ele>
        <time>2016-08-07T08:06:13Z</time>
      </trkpt>
      <trkpt lat="47.71727" lon="7.06381">
        <ele>431</ele>
        <time>2016-08-07T08:06:27Z</time>
      </trkpt>
      <trkpt lat="47.71733" lon="7.06408">
        <ele>434</ele>
        <time>2016-08-07T08:06:42Z</time>
      </trkpt>
      <trkpt lat="47.71733" lon="7.06412">
        <ele>436</ele>
        <time>2016-08-07T08:06:45Z</time>
      </trkpt>
      <trkpt lat="47.71733" lon="7.06417">
        <ele>437</ele>
        <time>2016-08-07T08:06:54Z</time>
      </trkpt>
      <trkpt lat="47.71733" lon="7.06453">
        <ele>428</ele>
        <time>2016-08-07T08:07:21Z</time>
      </trkpt>
      <trkpt lat="47.71738" lon="7.0648">
        <ele>424</ele>
        <time>2016-08-07T08:07:35Z</time>
      </trkpt>
      <trkpt lat="47.71756" lon="7.06499">
        <ele>425</ele>
        <time>2016-08-07T08:07:52Z</time>
      </trkpt>
      <trkpt lat="47.7177" lon="7.06526">
        <ele>425</ele>
        <time>2016-08-07T08:08:11Z</time>
      </trkpt>
      <trkpt lat="47.71787" lon="7.06553">
        <ele>429</ele>
        <time>2016-08-07T08:08:28Z</time>
      </trkpt>
      <trkpt lat="47.71801" lon="7.06583">
        <ele>431</ele>
        <time>2016-08-07T08:08:50Z</time>
      </trkpt>
      <trkpt lat="47.7181" lon="7.06607">
        <ele>429</ele>
        <time>2016-08-07T08:09:06Z</time>
      </trkpt>
      <trkpt lat="47.71824" lon="7.06629">
        <ele>428</ele>
        <time>2016-08-07T08:09:21Z</time>
      </trkpt>
      <trkpt lat="47.71835" lon="7.0664">
        <ele>431</ele>
        <time>2016-08-07T08:09:32Z</time>
      </trkpt>
      <trkpt lat="47.71845" lon="7.06643">
        <ele>433</ele>
        <time>2016-08-07T08:09:38Z</time>
      </trkpt>
      <trkpt lat="47.71854" lon="7.0665">
        <ele>432</ele>
        <time>2016-08-07T08:09:47Z</time>
      </trkpt>
      <trkpt lat="47.71862" lon="7.06661">
        <ele>429</ele>
        <time>2016-08-07T08:10:01Z</time>
      </trkpt>
      <trkpt lat="47.71875" lon="7.06668">
        <ele>428</ele>
        <time>2016-08-07T08:10:10Z</time>
      </trkpt>
      <trkpt lat="47.71883" lon="7.06677">
        <ele>424</ele>
        <time>2016-08-07T08:10:19Z</time>
      </trkpt>
      <trkpt lat="47.71888" lon="7.06676">
        <ele>424</ele>
        <time>2016-08-07T08:10:34Z</time>
      </trkpt>
      <trkpt lat="47.71888" lon="7.06676">
        <ele>424</ele>
        <time>2016-08-07T08:10:41Z</time>
      </trkpt>
      <trkpt lat="47.71888" lon="7.06676">
        <ele>424</ele>
        <time>2016-08-07T08:10:43Z</time>
      </trkpt>
      <trkpt lat="47.71892" lon="7.06706">
        <ele>420</ele>
        <time>2016-08-07T08:11:30Z</time>
      </trkpt>
      <trkpt lat="47.71892" lon="7.06706">
        <ele>420</ele>
        <time>2016-08-07T08:11:38Z</time>
      </trkpt>
      <trkpt lat="47.71892" lon="7.06706">
        <ele>420</ele>
        <time>2016-08-07T08:11:39Z</time>
      </trkpt>
      <trkpt lat="47.71883" lon="7.06728">
        <ele>415</ele>
        <time>2016-08-07T08:12:00Z</time>
      </trkpt>
      <trkpt lat="47.71873" lon="7.06745">
        <ele>417</ele>
        <time>2016-08-07T08:12:06Z</time>
      </trkpt>
      <trkpt lat="47.71869" lon="7.06759">
        <ele>417</ele>
        <time>2016-08-07T08:12:13Z</time>
      </trkpt>
      <trkpt lat="47.7187" lon="7.06784">
        <ele>414</ele>
        <time>2016-08-07T08:12:29Z</time>
      </trkpt>
      <trkpt lat="47.71878" lon="7.06803">
        <ele>417</ele>
        <time>2016-08-07T08:12:41Z</time>
      </trkpt>
      <trkpt lat="47.71881" lon="7.06834">
        <ele>418</ele>
        <time>2016-08-07T08:12:57Z</time>
      </trkpt>
      <trkpt lat="47.71888" lon="7.0685">
        <ele>419</ele>
        <time>2016-08-07T08:13:09Z</time>
      </trkpt>
      <trkpt lat="47.7189" lon="7.06864">
        <ele>417</ele>
        <time>2016-08-07T08:13:17Z</time>
      </trkpt>
      <trkpt lat="47.71898" lon="7.06882">
        <ele>421</ele>
        <time>2016-08-07T08:13:27Z</time>
      </trkpt>
      <trkpt lat="47.7189" lon="7.06877">
        <ele>423</ele>
        <time>2016-08-07T08:13:35Z</time>
      </trkpt>
      <trkpt lat="47.71901" lon="7.06904">
        <ele>410</ele>
        <time>2016-08-07T08:15:36Z</time>
      </trkpt>
      <trkpt lat="47.71911" lon="7.06902">
        <ele>411</ele>
        <time>2016-08-07T08:15:40Z</time>
      </trkpt>
      <trkpt lat="47.7192" lon="7.06908">
        <ele>410</ele>
        <time>2016-08-07T08:15:52Z</time>
      </trkpt>
      <trkpt lat="47.71933" lon="7.06922">
        <ele>408</ele>
        <time>2016-08-07T08:16:12Z</time>
      </trkpt>
      <trkpt lat="47.71947" lon="7.06947">
        <ele>412</ele>
        <time>2016-08-07T08:16:28Z</time>
      </trkpt>
      <trkpt lat="47.7195" lon="7.06952">
        <ele>413</ele>
        <time>2016-08-07T08:16:36Z</time>
      </trkpt>
      <trkpt lat="47.71964" lon="7.06992">
        <ele>410</ele>
        <time>2016-08-07T08:17:11Z</time>
      </trkpt>
      <trkpt lat="47.71971" lon="7.07015">
        <ele>411</ele>
        <time>2016-08-07T08:17:28Z</time>
      </trkpt>
      <trkpt lat="47.71974" lon="7.07036">
        <ele>404</ele>
        <time>2016-08-07T08:17:41Z</time>
      </trkpt>
      <trkpt lat="47.71984" lon="7.07063">
        <ele>403</ele>
        <time>2016-08-07T08:18:01Z</time>
      </trkpt>
      <trkpt lat="47.71991" lon="7.07083">
        <ele>403</ele>
        <time>2016-08-07T08:18:15Z</time>
      </trkpt>
      <trkpt lat="47.71994" lon="7.07096">
        <ele>401</ele>
        <time>2016-08-07T08:18:23Z</time>
      </trkpt>
      <trkpt lat="47.71995" lon="7.071">
        <ele>402</ele>
        <time>2016-08-07T08:18:32Z</time>
      </trkpt>
      <trkpt lat="47.71997" lon="7.07125">
        <ele>399</ele>
        <time>2016-08-07T08:18:57Z</time>
      </trkpt>
      <trkpt lat="47.72" lon="7.07149">
        <ele>404</ele>
        <time>2016-08-07T08:19:06Z</time>
      </trkpt>
      <trkpt lat="47.72012" lon="7.07167">
        <ele>403</ele>
        <time>2016-08-07T08:19:16Z</time>
      </trkpt>
      <trkpt lat="47.72027" lon="7.07188">
        <ele>411</ele>
        <time>2016-08-07T08:19:28Z</time>
      </trkpt>
      <trkpt lat="47.72039" lon="7.07207">
        <ele>415</ele>
        <time>2016-08-07T08:19:38Z</time>
      </trkpt>
      <trkpt lat="47.72039" lon="7.07207">
        <ele>415</ele>
        <time>2016-08-07T08:19:43Z</time>
      </trkpt>
      <trkpt lat="47.72044" lon="7.07216">
        <ele>407</ele>
        <time>2016-08-07T08:19:48Z</time>
      </trkpt>
      <trkpt lat="47.72053" lon="7.07239">
        <ele>407</ele>
        <time>2016-08-07T08:20:03Z</time>
      </trkpt>
      <trkpt lat="47.72056" lon="7.07257">
        <ele>406</ele>
        <time>2016-08-07T08:20:15Z</time>
      </trkpt>
      <trkpt lat="47.7206" lon="7.07278">
        <ele>397</ele>
        <time>2016-08-07T08:20:26Z</time>
      </trkpt>
      <trkpt lat="47.72075" lon="7.07301">
        <ele>387</ele>
        <time>2016-08-07T08:20:48Z</time>
      </trkpt>
      <trkpt lat="47.72072" lon="7.07338">
        <ele>385</ele>
        <time>2016-08-07T08:21:08Z</time>
      </trkpt>
      <trkpt lat="47.72072" lon="7.07338">
        <ele>385</ele>
        <time>2016-08-07T08:21:15Z</time>
      </trkpt>
      <trkpt lat="47.72076" lon="7.07357">
        <ele>384</ele>
        <time>2016-08-07T08:21:27Z</time>
      </trkpt>
      <trkpt lat="47.72084" lon="7.07384">
        <ele>380</ele>
        <time>2016-08-07T08:21:43Z</time>
      </trkpt>
      <trkpt lat="47.72091" lon="7.07404">
        <ele>377</ele>
        <time>2016-08-07T08:21:56Z</time>
      </trkpt>
      <trkpt lat="47.72099" lon="7.07425">
        <ele>376</ele>
        <time>2016-08-07T08:22:09Z</time>
      </trkpt>
      <trkpt lat="47.72106" lon="7.07446">
        <ele>375</ele>
        <time>2016-08-07T08:22:22Z</time>
      </trkpt>
      <trkpt lat="47.72115" lon="7.07468">
        <ele>374</ele>
        <time>2016-08-07T08:22:37Z</time>
      </trkpt>
      <trkpt lat="47.72129" lon="7.07498">
        <ele>374</ele>
        <time>2016-08-07T08:22:58Z</time>
      </trkpt>
      <trkpt lat="47.72141" lon="7.07503">
        <ele>371</ele>
        <time>2016-08-07T08:23:11Z</time>
      </trkpt>
      <trkpt lat="47.72158" lon="7.07479">
        <ele>370</ele>
        <time>2016-08-07T08:23:30Z</time>
      </trkpt>
      <trkpt lat="47.72177" lon="7.07461">
        <ele>373</ele>
        <time>2016-08-07T08:23:46Z</time>
      </trkpt>
      <trkpt lat="47.72193" lon="7.07446">
        <ele>374</ele>
        <time>2016-08-07T08:24:01Z</time>
      </trkpt>
      <trkpt lat="47.72207" lon="7.07431">
        <ele>372</ele>
        <time>2016-08-07T08:24:15Z</time>
      </trkpt>
      <trkpt lat="47.72216" lon="7.07424">
        <ele>372</ele>
        <time>2016-08-07T08:24:22Z</time>
      </trkpt>
      <trkpt lat="47.72221" lon="7.07423">
        <ele>374</ele>
        <time>2016-08-07T08:24:35Z</time>
      </trkpt>
      <trkpt lat="47.7223" lon="7.07429">
        <ele>372</ele>
        <time>2016-08-07T08:24:47Z</time>
      </trkpt>
      <trkpt lat="47.72252" lon="7.07458">
        <ele>368</ele>
        <time>2016-08-07T08:25:40Z</time>
      </trkpt>
      <trkpt lat="47.72259" lon="7.07482">
        <ele>369</ele>
        <time>2016-08-07T08:25:55Z</time>
      </trkpt>
      <trkpt lat="47.72264" lon="7.075">
        <ele>371</ele>
        <time>2016-08-07T08:26:07Z</time>
      </trkpt>
      <trkpt lat="47.72269" lon="7.07524">
        <ele>372</ele>
        <time>2016-08-07T08:26:21Z</time>
      </trkpt>
      <trkpt lat="47.7228" lon="7.07539">
        <ele>370</ele>
        <time>2016-08-07T08:26:32Z</time>
      </trkpt>
      <trkpt lat="47.72288" lon="7.07551">
        <ele>366</ele>
        <time>2016-08-07T08:26:44Z</time>
      </trkpt>
      <trkpt lat="47.723" lon="7.07567">
        <ele>368</ele>
        <time>2016-08-07T08:26:56Z</time>
      </trkpt>
      <trkpt lat="47.7231" lon="7.07577">
        <ele>371</ele>
        <time>2016-08-07T08:27:05Z</time>
      </trkpt>
      <trkpt lat="47.72312" lon="7.0758">
        <ele>369</ele>
        <time>2016-08-07T08:27:13Z</time>
      </trkpt>
      <trkpt lat="47.72323" lon="7.07588">
        <ele>360</ele>
        <time>2016-08-07T08:27:29Z</time>
      </trkpt>
      <trkpt lat="47.72345" lon="7.07589">
        <ele>363</ele>
        <time>2016-08-07T08:27:43Z</time>
      </trkpt>
      <trkpt lat="47.72345" lon="7.07589">
        <ele>363</ele>
        <time>2016-08-07T08:27:51Z</time>
      </trkpt>
      <trkpt lat="47.72345" lon="7.07589">
        <ele>363</ele>
        <time>2016-08-07T08:27:52Z</time>
      </trkpt>
      <trkpt lat="47.72353" lon="7.07565">
        <ele>363</ele>
        <time>2016-08-07T08:28:17Z</time>
      </trkpt>
      <trkpt lat="47.72354" lon="7.07554">
        <ele>362</ele>
        <time>2016-08-07T08:28:22Z</time>
      </trkpt>
      <trkpt lat="47.72366" lon="7.07529">
        <ele>361</ele>
        <time>2016-08-07T08:28:40Z</time>
      </trkpt>
      <trkpt lat="47.72387" lon="7.07496">
        <ele>366</ele>
        <time>2016-08-07T08:29:16Z</time>
      </trkpt>
      <trkpt lat="47.72405" lon="7.07507">
        <ele>365</ele>
        <time>2016-08-07T08:29:36Z</time>
      </trkpt>
      <trkpt lat="47.72422" lon="7.0751">
        <ele>372</ele>
        <time>2016-08-07T08:29:52Z</time>
      </trkpt>
      <trkpt lat="47.72433" lon="7.07496">
        <ele>377</ele>
        <time>2016-08-07T08:30:05Z</time>
      </trkpt>
      <trkpt lat="47.72433" lon="7.07496">
        <ele>377</ele>
        <time>2016-08-07T08:30:13Z</time>
      </trkpt>
      <trkpt lat="47.72435" lon="7.0749">
        <ele>380</ele>
        <time>2016-08-07T08:30:14Z</time>
      </trkpt>
      <trkpt lat="47.72459" lon="7.07463">
        <ele>380</ele>
        <time>2016-08-07T08:31:17Z</time>
      </trkpt>
      <trkpt lat="47.72475" lon="7.07458">
        <ele>382</ele>
        <time>2016-08-07T08:31:24Z</time>
      </trkpt>
      <trkpt lat="47.72482" lon="7.0746">
        <ele>384</ele>
        <time>2016-08-07T08:31:33Z</time>
      </trkpt>
      <trkpt lat="47.72491" lon="7.07473">
        <ele>377</ele>
        <time>2016-08-07T08:31:45Z</time>
      </trkpt>
      <trkpt lat="47.725" lon="7.07489">
        <ele>379</ele>
        <time>2016-08-07T08:32:02Z</time>
      </trkpt>
      <trkpt lat="47.7251" lon="7.07489">
        <ele>380</ele>
        <time>2016-08-07T08:32:08Z</time>
      </trkpt>
      <trkpt lat="47.72515" lon="7.075">
        <ele>382</ele>
        <time>2016-08-07T08:32:22Z</time>
      </trkpt>
      <trkpt lat="47.72524" lon="7.07508">
        <ele>384</ele>
        <time>2016-08-07T08:32:35Z</time>
      </trkpt>
      <trkpt lat="47.7253" lon="7.07517">
        <ele>383</ele>
        <time>2016-08-07T08:32:50Z</time>
      </trkpt>
      <trkpt lat="47.72562" lon="7.07511">
        <ele>385</ele>
        <time>2016-08-07T08:33:48Z</time>
      </trkpt>
      <trkpt lat="47.72586" lon="7.07513">
        <ele>392</ele>
        <time>2016-08-07T08:34:05Z</time>
      </trkpt>
      <trkpt lat="47.72591" lon="7.07514">
        <ele>395</ele>
        <time>2016-08-07T08:34:08Z</time>
      </trkpt>
      <trkpt lat="47.72599" lon="7.07514">
        <ele>395</ele>
        <time>2016-08-07T08:34:20Z</time>
      </trkpt>
      <trkpt lat="47.72608" lon="7.07525">
        <ele>400</ele>
        <time>2016-08-07T08:34:30Z</time>
      </trkpt>
      <trkpt lat="47.72617" lon="7.07542">
        <ele>404</ele>
        <time>2016-08-07T08:34:45Z</time>
      </trkpt>
      <trkpt lat="47.72617" lon="7.07542">
        <ele>404</ele>
        <time>2016-08-07T08:34:54Z</time>
      </trkpt>
      <trkpt lat="47.72617" lon="7.07542">
        <ele>404</ele>
        <time>2016-08-07T08:34:55Z</time>
      </trkpt>
      <trkpt lat="47.72614" lon="7.07564">
        <ele>406</ele>
        <time>2016-08-07T08:35:41Z</time>
      </trkpt>
      <trkpt lat="47.72611" lon="7.07596">
        <ele>401</ele>
        <time>2016-08-07T08:35:53Z</time>
      </trkpt>
      <trkpt lat="47.72611" lon="7.07605">
        <ele>404</ele>
        <time>2016-08-07T08:35:57Z</time>
      </trkpt>
      <trkpt lat="47.72616" lon="7.07602">
        <ele>410</ele>
        <time>2016-08-07T08:36:06Z</time>
      </trkpt>
      <trkpt lat="47.72628" lon="7.0759">
        <ele>413</ele>
        <time>2016-08-07T08:36:24Z</time>
      </trkpt>
      <trkpt lat="47.72639" lon="7.07589">
        <ele>412</ele>
        <time>2016-08-07T08:36:32Z</time>
      </trkpt>
      <trkpt lat="47.72645" lon="7.0759">
        <ele>412</ele>
        <time>2016-08-07T08:36:38Z</time>
      </trkpt>
      <trkpt lat="47.72652" lon="7.07587">
        <ele>413</ele>
        <time>2016-08-07T08:36:51Z</time>
      </trkpt>
      <trkpt lat="47.72652" lon="7.07587">
        <ele>413</ele>
        <time>2016-08-07T08:36:58Z</time>
      </trkpt>
      <trkpt lat="47.72652" lon="7.07587">
        <ele>413</ele>
        <time>2016-08-07T08:36:59Z</time>
      </trkpt>
      <trkpt lat="47.72654" lon="7.07608">
        <ele>415</ele>
        <time>2016-08-07T08:37:53Z</time>
      </trkpt>
      <trkpt lat="47.72653" lon="7.07613">
        <ele>416</ele>
        <time>2016-08-07T08:37:55Z</time>
      </trkpt>
      <trkpt lat="47.72654" lon="7.07608">
        <ele>415</ele>
        <time>2016-08-07T08:38:03Z</time>
      </trkpt>
      <trkpt lat="47.72651" lon="7.07629">
        <ele>417</ele>
        <time>2016-08-07T08:38:27Z</time>
      </trkpt>
      <trkpt lat="47.72653" lon="7.07641">
        <ele>414</ele>
        <time>2016-08-07T08:38:32Z</time>
      </trkpt>
      <trkpt lat="47.72658" lon="7.07652">
        <ele>424</ele>
        <time>2016-08-07T08:38:40Z</time>
      </trkpt>
      <trkpt lat="47.72677" lon="7.07655">
        <ele>417</ele>
        <time>2016-08-07T08:38:53Z</time>
      </trkpt>
      <trkpt lat="47.72691" lon="7.07658">
        <ele>424</ele>
        <time>2016-08-07T08:39:06Z</time>
      </trkpt>
      <trkpt lat="47.72694" lon="7.0766">
        <ele>424</ele>
        <time>2016-08-07T08:39:08Z</time>
      </trkpt>
      <trkpt lat="47.72697" lon="7.07659">
        <ele>427</ele>
        <time>2016-08-07T08:39:14Z</time>
      </trkpt>
      <trkpt lat="47.72717" lon="7.07681">
        <ele>428</ele>
        <time>2016-08-07T08:40:01Z</time>
      </trkpt>
      <trkpt lat="47.72726" lon="7.07696">
        <ele>436</ele>
        <time>2016-08-07T08:40:14Z</time>
      </trkpt>
      <trkpt lat="47.72746" lon="7.07711">
        <ele>437</ele>
        <time>2016-08-07T08:40:36Z</time>
      </trkpt>
      <trkpt lat="47.72746" lon="7.07711">
        <ele>437</ele>
        <time>2016-08-07T08:40:41Z</time>
      </trkpt>
      <trkpt lat="47.72748" lon="7.07726">
        <ele>432</ele>
        <time>2016-08-07T08:40:46Z</time>
      </trkpt>
      <trkpt lat="47.72749" lon="7.07753">
        <ele>436</ele>
        <time>2016-08-07T08:41:02Z</time>
      </trkpt>
      <trkpt lat="47.72749" lon="7.07767">
        <ele>438</ele>
        <time>2016-08-07T08:41:11Z</time>
      </trkpt>
      <trkpt lat="47.72762" lon="7.07767">
        <ele>435</ele>
        <time>2016-08-07T08:41:18Z</time>
      </trkpt>
      <trkpt lat="47.72766" lon="7.07785">
        <ele>438</ele>
        <time>2016-08-07T08:41:30Z</time>
      </trkpt>
      <trkpt lat="47.72766" lon="7.07785">
        <ele>438</ele>
        <time>2016-08-07T08:41:38Z</time>
      </trkpt>
      <trkpt lat="47.72766" lon="7.07785">
        <ele>438</ele>
        <time>2016-08-07T08:41:39Z</time>
      </trkpt>
      <trkpt lat="47.72774" lon="7.078">
        <ele>441</ele>
        <time>2016-08-07T08:41:48Z</time>
      </trkpt>
      <trkpt lat="47.72774" lon="7.078">
        <ele>441</ele>
        <time>2016-08-07T08:41:53Z</time>
      </trkpt>
      <trkpt lat="47.72774" lon="7.078">
        <ele>441</ele>
        <time>2016-08-07T08:41:55Z</time>
      </trkpt>
      <trkpt lat="47.72788" lon="7.07816">
        <ele>446</ele>
        <time>2016-08-07T08:42:26Z</time>
      </trkpt>
      <trkpt lat="47.72804" lon="7.07822">
        <ele>442</ele>
        <time>2016-08-07T08:42:45Z</time>
      </trkpt>
      <trkpt lat="47.72811" lon="7.07807">
        <ele>444</ele>
        <time>2016-08-07T08:42:53Z</time>
      </trkpt>
      <trkpt lat="47.7281" lon="7.07805">
        <ele>445</ele>
        <time>2016-08-07T08:43:01Z</time>
      </trkpt>
      <trkpt lat="47.72824" lon="7.07785">
        <ele>452</ele>
        <time>2016-08-07T08:43:25Z</time>
      </trkpt>
      <trkpt lat="47.72832" lon="7.0777">
        <ele>443</ele>
        <time>2016-08-07T08:43:36Z</time>
      </trkpt>
      <trkpt lat="47.72832" lon="7.07762">
        <ele>444</ele>
        <time>2016-08-07T08:43:43Z</time>
      </trkpt>
      <trkpt lat="47.72832" lon="7.0777">
        <ele>443</ele>
        <time>2016-08-07T08:43:51Z</time>
      </trkpt>
      <trkpt lat="47.7284" lon="7.07735">
        <ele>429</ele>
        <time>2016-08-07T08:44:20Z</time>
      </trkpt>
      <trkpt lat="47.7285" lon="7.07715">
        <ele>430</ele>
        <time>2016-08-07T08:44:33Z</time>
      </trkpt>
      <trkpt lat="47.72865" lon="7.07694">
        <ele>430</ele>
        <time>2016-08-07T08:44:50Z</time>
      </trkpt>
      <trkpt lat="47.72877" lon="7.07667">
        <ele>434</ele>
        <time>2016-08-07T08:45:04Z</time>
      </trkpt>
      <trkpt lat="47.72889" lon="7.07653">
        <ele>431</ele>
        <time>2016-08-07T08:45:17Z</time>
      </trkpt>
      <trkpt lat="47.729" lon="7.07632">
        <ele>430</ele>
        <time>2016-08-07T08:45:31Z</time>
      </trkpt>
      <trkpt lat="47.72915" lon="7.07612">
        <ele>434</ele>
        <time>2016-08-07T08:45:47Z</time>
      </trkpt>
      <trkpt lat="47.72926" lon="7.076">
        <ele>435</ele>
        <time>2016-08-07T08:45:57Z</time>
      </trkpt>
      <trkpt lat="47.72933" lon="7.07587">
        <ele>445</ele>
        <time>2016-08-07T08:46:06Z</time>
      </trkpt>
      <trkpt lat="47.72944" lon="7.0757">
        <ele>451</ele>
        <time>2016-08-07T08:46:20Z</time>
      </trkpt>
      <trkpt lat="47.72954" lon="7.07564">
        <ele>446</ele>
        <time>2016-08-07T08:46:29Z</time>
      </trkpt>
      <trkpt lat="47.7297" lon="7.07545">
        <ele>443</ele>
        <time>2016-08-07T08:46:45Z</time>
      </trkpt>
      <trkpt lat="47.72995" lon="7.07521">
        <ele>450</ele>
        <time>2016-08-07T08:47:01Z</time>
      </trkpt>
      <trkpt lat="47.73004" lon="7.07522">
        <ele>451</ele>
        <time>2016-08-07T08:47:03Z</time>
      </trkpt>
      <trkpt lat="47.73002" lon="7.07509">
        <ele>445</ele>
        <time>2016-08-07T08:47:13Z</time>
      </trkpt>
      <trkpt lat="47.73012" lon="7.07502">
        <ele>442</ele>
        <time>2016-08-07T08:47:21Z</time>
      </trkpt>
      <trkpt lat="47.73019" lon="7.0749">
        <ele>444</ele>
        <time>2016-08-07T08:47:30Z</time>
      </trkpt>
      <trkpt lat="47.73029" lon="7.07479">
        <ele>440</ele>
        <time>2016-08-07T08:47:42Z</time>
      </trkpt>
      <trkpt lat="47.73042" lon="7.07471">
        <ele>434</ele>
        <time>2016-08-07T08:47:56Z</time>
      </trkpt>
      <trkpt lat="47.73052" lon="7.07461">
        <ele>432</ele>
        <time>2016-08-07T08:48:08Z</time>
      </trkpt>
      <trkpt lat="47.73067" lon="7.07456">
        <ele>430</ele>
        <time>2016-08-07T08:48:18Z</time>
      </trkpt>
      <trkpt lat="47.73073" lon="7.07443">
        <ele>429</ele>
        <time>2016-08-07T08:48:24Z</time>
      </trkpt>
      <trkpt lat="47.73078" lon="7.07463">
        <ele>423</ele>
        <time>2016-08-07T08:48:37Z</time>
      </trkpt>
      <trkpt lat="47.73085" lon="7.07441">
        <ele>422</ele>
        <time>2016-08-07T08:48:41Z</time>
      </trkpt>
      <trkpt lat="47.73092" lon="7.07437">
        <ele>423</ele>
        <time>2016-08-07T08:48:50Z</time>
      </trkpt>
      <trkpt lat="47.73104" lon="7.07421">
        <ele>424</ele>
        <time>2016-08-07T08:48:56Z</time>
      </trkpt>
      <trkpt lat="47.73102" lon="7.07416">
        <ele>424</ele>
        <time>2016-08-07T08:49:05Z</time>
      </trkpt>
      <trkpt lat="47.73126" lon="7.07394">
        <ele>423</ele>
        <time>2016-08-07T08:50:23Z</time>
      </trkpt>
      <trkpt lat="47.73141" lon="7.07382">
        <ele>423</ele>
        <time>2016-08-07T08:50:36Z</time>
      </trkpt>
      <trkpt lat="47.73155" lon="7.07364">
        <ele>419</ele>
        <time>2016-08-07T08:50:52Z</time>
      </trkpt>
      <trkpt lat="47.73174" lon="7.07346">
        <ele>424</ele>
        <time>2016-08-07T08:51:10Z</time>
      </trkpt>
      <trkpt lat="47.73189" lon="7.07326">
        <ele>423</ele>
        <time>2016-08-07T08:51:25Z</time>
      </trkpt>
      <trkpt lat="47.73207" lon="7.07301">
        <ele>423</ele>
        <time>2016-08-07T08:51:44Z</time>
      </trkpt>
      <trkpt lat="47.73214" lon="7.07286">
        <ele>423</ele>
        <time>2016-08-07T08:51:55Z</time>
      </trkpt>
      <trkpt lat="47.73228" lon="7.07264">
        <ele>423</ele>
        <time>2016-08-07T08:52:08Z</time>
      </trkpt>
      <trkpt lat="47.73238" lon="7.07245">
        <ele>423</ele>
        <time>2016-08-07T08:52:20Z</time>
      </trkpt>
      <trkpt lat="47.73245" lon="7.07238">
        <ele>422</ele>
        <time>2016-08-07T08:52:27Z</time>
      </trkpt>
      <trkpt lat="47.73251" lon="7.07226">
        <ele>421</ele>
        <time>2016-08-07T08:52:37Z</time>
      </trkpt>
      <trkpt lat="47.73265" lon="7.07213">
        <ele>420</ele>
        <time>2016-08-07T08:52:49Z</time>
      </trkpt>
      <trkpt lat="47.73279" lon="7.07198">
        <ele>420</ele>
        <time>2016-08-07T08:53:04Z</time>
      </trkpt>
      <trkpt lat="47.73291" lon="7.07184">
        <ele>418</ele>
        <time>2016-08-07T08:53:17Z</time>
      </trkpt>
      <trkpt lat="47.73307" lon="7.07168">
        <ele>416</ele>
        <time>2016-08-07T08:53:33Z</time>
      </trkpt>
      <trkpt lat="47.73316" lon="7.07159">
        <ele>415</ele>
        <time>2016-08-07T08:53:42Z</time>
      </trkpt>
      <trkpt lat="47.73326" lon="7.07148">
        <ele>416</ele>
        <time>2016-08-07T08:53:53Z</time>
      </trkpt>
      <trkpt lat="47.73348" lon="7.07131">
        <ele>416</ele>
        <time>2016-08-07T08:54:12Z</time>
      </trkpt>
      <trkpt lat="47.73371" lon="7.07113">
        <ele>415</ele>
        <time>2016-08-07T08:54:31Z</time>
      </trkpt>
      <trkpt lat="47.7338" lon="7.07107">
        <ele>415</ele>
        <time>2016-08-07T08:54:39Z</time>
      </trkpt>
      <trkpt lat="47.734" lon="7.0709">
        <ele>413</ele>
        <time>2016-08-07T08:54:57Z</time>
      </trkpt>
      <trkpt lat="47.73412" lon="7.07077">
        <ele>412</ele>
        <time>2016-08-07T08:55:11Z</time>
      </trkpt>
      <trkpt lat="47.73423" lon="7.07068">
        <ele>410</ele>
        <time>2016-08-07T08:55:19Z</time>
      </trkpt>
      <trkpt lat="47.73438" lon="7.07054">
        <ele>411</ele>
        <time>2016-08-07T08:55:33Z</time>
      </trkpt>
      <trkpt lat="47.73449" lon="7.07036">
        <ele>411</ele>
        <time>2016-08-07T08:55:48Z</time>
      </trkpt>
      <trkpt lat="47.73463" lon="7.07023">
        <ele>411</ele>
        <time>2016-08-07T08:55:59Z</time>
      </trkpt>
      <trkpt lat="47.73475" lon="7.07007">
        <ele>412</ele>
        <time>2016-08-07T08:56:12Z</time>
      </trkpt>
      <trkpt lat="47.73495" lon="7.0698">
        <ele>413</ele>
        <time>2016-08-07T08:56:33Z</time>
      </trkpt>
      <trkpt lat="47.7351" lon="7.0696">
        <ele>413</ele>
        <time>2016-08-07T08:56:46Z</time>
      </trkpt>
      <trkpt lat="47.73515" lon="7.0695">
        <ele>417</ele>
        <time>2016-08-07T08:56:53Z</time>
      </trkpt>
      <trkpt lat="47.73519" lon="7.06937">
        <ele>418</ele>
        <time>2016-08-07T08:57:02Z</time>
      </trkpt>
      <trkpt lat="47.73517" lon="7.06924">
        <ele>417</ele>
        <time>2016-08-07T08:57:11Z</time>
      </trkpt>
      <trkpt lat="47.73521" lon="7.06918">
        <ele>416</ele>
        <time>2016-08-07T08:57:23Z</time>
      </trkpt>
      <trkpt lat="47.73528" lon="7.06896">
        <ele>420</ele>
        <time>2016-08-07T08:57:33Z</time>
      </trkpt>
      <trkpt lat="47.7354" lon="7.06875">
        <ele>416</ele>
        <time>2016-08-07T08:57:44Z</time>
      </trkpt>
      <trkpt lat="47.73539" lon="7.06849">
        <ele>417</ele>
        <time>2016-08-07T08:58:02Z</time>
      </trkpt>
      <trkpt lat="47.73554" lon="7.06821">
        <ele>418</ele>
        <time>2016-08-07T08:58:17Z</time>
      </trkpt>
      <trkpt lat="47.73553" lon="7.06797">
        <ele>418</ele>
        <time>2016-08-07T08:58:33Z</time>
      </trkpt>
      <trkpt lat="47.73555" lon="7.06758">
        <ele>418</ele>
        <time>2016-08-07T08:58:47Z</time>
      </trkpt>
      <trkpt lat="47.73556" lon="7.06751">
        <ele>419</ele>
        <time>2016-08-07T08:58:49Z</time>
      </trkpt>
      <trkpt lat="47.73565" lon="7.06736">
        <ele>419</ele>
        <time>2016-08-07T08:59:01Z</time>
      </trkpt>
      <trkpt lat="47.73551" lon="7.06688">
        <ele>435</ele>
        <time>2016-08-07T08:59:17Z</time>
      </trkpt>
      <trkpt lat="47.73548" lon="7.06676">
        <ele>430</ele>
        <time>2016-08-07T08:59:27Z</time>
      </trkpt>
      <trkpt lat="47.73529" lon="7.06656">
        <ele>423</ele>
        <time>2016-08-07T08:59:44Z</time>
      </trkpt>
      <trkpt lat="47.73516" lon="7.06652">
        <ele>423</ele>
        <time>2016-08-07T08:59:53Z</time>
      </trkpt>
      <trkpt lat="47.735" lon="7.06639">
        <ele>421</ele>
        <time>2016-08-07T09:00:06Z</time>
      </trkpt>
      <trkpt lat="47.73486" lon="7.0663">
        <ele>419</ele>
        <time>2016-08-07T09:00:17Z</time>
      </trkpt>
      <trkpt lat="47.73475" lon="7.06619">
        <ele>417</ele>
        <time>2016-08-07T09:00:32Z</time>
      </trkpt>
      <trkpt lat="47.73473" lon="7.06598">
        <ele>412</ele>
        <time>2016-08-07T09:00:44Z</time>
      </trkpt>
      <trkpt lat="47.73473" lon="7.06574">
        <ele>408</ele>
        <time>2016-08-07T09:00:55Z</time>
      </trkpt>
      <trkpt lat="47.73451" lon="7.06547">
        <ele>416</ele>
        <time>2016-08-07T09:01:13Z</time>
      </trkpt>
      <trkpt lat="47.73435" lon="7.06574">
        <ele>409</ele>
        <time>2016-08-07T09:01:31Z</time>
      </trkpt>
      <trkpt lat="47.73434" lon="7.0662">
        <ele>408</ele>
        <time>2016-08-07T09:01:48Z</time>
      </trkpt>
      <trkpt lat="47.73432" lon="7.06634">
        <ele>407</ele>
        <time>2016-08-07T09:01:54Z</time>
      </trkpt>
      <trkpt lat="47.73422" lon="7.06661">
        <ele>411</ele>
        <time>2016-08-07T09:02:05Z</time>
      </trkpt>
      <trkpt lat="47.73423" lon="7.06674">
        <ele>404</ele>
        <time>2016-08-07T09:02:16Z</time>
      </trkpt>
      <trkpt lat="47.73416" lon="7.06693">
        <ele>406</ele>
        <time>2016-08-07T09:02:30Z</time>
      </trkpt>
      <trkpt lat="47.73402" lon="7.06704">
        <ele>405</ele>
        <time>2016-08-07T09:02:44Z</time>
      </trkpt>
      <trkpt lat="47.73391" lon="7.06698">
        <ele>403</ele>
        <time>2016-08-07T09:02:56Z</time>
      </trkpt>
      <trkpt lat="47.73382" lon="7.06666">
        <ele>404</ele>
        <time>2016-08-07T09:03:13Z</time>
      </trkpt>
      <trkpt lat="47.73383" lon="7.06644">
        <ele>404</ele>
        <time>2016-08-07T09:03:25Z</time>
      </trkpt>
      <trkpt lat="47.73388" lon="7.06613">
        <ele>395</ele>
        <time>2016-08-07T09:03:44Z</time>
      </trkpt>
      <trkpt lat="47.73377" lon="7.06607">
        <ele>388</ele>
        <time>2016-08-07T09:03:56Z</time>
      </trkpt>
      <trkpt lat="47.73372" lon="7.06607">
        <ele>389</ele>
        <time>2016-08-07T09:04:11Z</time>
      </trkpt>
      <trkpt lat="47.7336" lon="7.06615">
        <ele>387</ele>
        <time>2016-08-07T09:04:21Z</time>
      </trkpt>
      <trkpt lat="47.73354" lon="7.06627">
        <ele>386</ele>
        <time>2016-08-07T09:04:29Z</time>
      </trkpt>
      <trkpt lat="47.73345" lon="7.06647">
        <ele>387</ele>
        <time>2016-08-07T09:04:40Z</time>
      </trkpt>
      <trkpt lat="47.73333" lon="7.06666">
        <ele>385</ele>
        <time>2016-08-07T09:04:54Z</time>
      </trkpt>
      <trkpt lat="47.73315" lon="7.06667">
        <ele>386</ele>
        <time>2016-08-07T09:05:08Z</time>
      </trkpt>
      <trkpt lat="47.73298" lon="7.06642">
        <ele>382</ele>
        <time>2016-08-07T09:05:27Z</time>
      </trkpt>
      <trkpt lat="47.73282" lon="7.0662">
        <ele>380</ele>
        <time>2016-08-07T09:05:44Z</time>
      </trkpt>
      <trkpt lat="47.73274" lon="7.06607">
        <ele>379</ele>
        <time>2016-08-07T09:05:52Z</time>
      </trkpt>
      <trkpt lat="47.73266" lon="7.06594">
        <ele>380</ele>
        <time>2016-08-07T09:06:00Z</time>
      </trkpt>
      <trkpt lat="47.73257" lon="7.0658">
        <ele>381</ele>
        <time>2016-08-07T09:06:09Z</time>
      </trkpt>
      <trkpt lat="47.73252" lon="7.06572">
        <ele>379</ele>
        <time>2016-08-07T09:06:18Z</time>
      </trkpt>
      <trkpt lat="47.73247" lon="7.06557">
        <ele>380</ele>
        <time>2016-08-07T09:06:29Z</time>
      </trkpt>
      <trkpt lat="47.73247" lon="7.06559">
        <ele>379</ele>
        <time>2016-08-07T09:06:38Z</time>
      </trkpt>
      <trkpt lat="47.73237" lon="7.06548">
        <ele>382</ele>
        <time>2016-08-07T09:12:24Z</time>
      </trkpt>
      <trkpt lat="47.73228" lon="7.06533">
        <ele>381</ele>
        <time>2016-08-07T09:12:34Z</time>
      </trkpt>
      <trkpt lat="47.73214" lon="7.06511">
        <ele>382</ele>
        <time>2016-08-07T09:12:50Z</time>
      </trkpt>
      <trkpt lat="47.73208" lon="7.06493">
        <ele>379</ele>
        <time>2016-08-07T09:13:01Z</time>
      </trkpt>
      <trkpt lat="47.73203" lon="7.0647">
        <ele>377</ele>
        <time>2016-08-07T09:13:15Z</time>
      </trkpt>
      <trkpt lat="47.73197" lon="7.06437">
        <ele>378</ele>
        <time>2016-08-07T09:13:33Z</time>
      </trkpt>
      <trkpt lat="47.73195" lon="7.06411">
        <ele>381</ele>
        <time>2016-08-07T09:13:47Z</time>
      </trkpt>
      <trkpt lat="47.7319" lon="7.06384">
        <ele>382</ele>
        <time>2016-08-07T09:14:03Z</time>
      </trkpt>
      <trkpt lat="47.7318" lon="7.06352">
        <ele>386</ele>
        <time>2016-08-07T09:14:24Z</time>
      </trkpt>
      <trkpt lat="47.73177" lon="7.06337">
        <ele>387</ele>
        <time>2016-08-07T09:14:32Z</time>
      </trkpt>
      <trkpt lat="47.73169" lon="7.06306">
        <ele>390</ele>
        <time>2016-08-07T09:14:47Z</time>
      </trkpt>
      <trkpt lat="47.73169" lon="7.06306">
        <ele>390</ele>
        <time>2016-08-07T09:14:52Z</time>
      </trkpt>
      <trkpt lat="47.73167" lon="7.06297">
        <ele>388</ele>
        <time>2016-08-07T09:14:57Z</time>
      </trkpt>
      <trkpt lat="47.73163" lon="7.06277">
        <ele>389</ele>
        <time>2016-08-07T09:15:06Z</time>
      </trkpt>
      <trkpt lat="47.73155" lon="7.06257">
        <ele>388</ele>
        <time>2016-08-07T09:15:23Z</time>
      </trkpt>
      <trkpt lat="47.7315" lon="7.06228">
        <ele>391</ele>
        <time>2016-08-07T09:15:37Z</time>
      </trkpt>
      <trkpt lat="47.73157" lon="7.06207">
        <ele>386</ele>
        <time>2016-08-07T09:15:47Z</time>
      </trkpt>
      <trkpt lat="47.73162" lon="7.06187">
        <ele>387</ele>
        <time>2016-08-07T09:15:57Z</time>
      </trkpt>
      <trkpt lat="47.73164" lon="7.06156">
        <ele>394</ele>
        <time>2016-08-07T09:16:14Z</time>
      </trkpt>
      <trkpt lat="47.73176" lon="7.0614">
        <ele>392</ele>
        <time>2016-08-07T09:16:26Z</time>
      </trkpt>
      <trkpt lat="47.73186" lon="7.06113">
        <ele>392</ele>
        <time>2016-08-07T09:16:42Z</time>
      </trkpt>
      <trkpt lat="47.73194" lon="7.06084">
        <ele>392</ele>
        <time>2016-08-07T09:16:58Z</time>
      </trkpt>
      <trkpt lat="47.73197" lon="7.06065">
        <ele>392</ele>
        <time>2016-08-07T09:17:09Z</time>
      </trkpt>
      <trkpt lat="47.73213" lon="7.0604">
        <ele>393</ele>
        <time>2016-08-07T09:17:23Z</time>
      </trkpt>
      <trkpt lat="47.73211" lon="7.06012">
        <ele>392</ele>
        <time>2016-08-07T09:17:40Z</time>
      </trkpt>
      <trkpt lat="47.732" lon="7.05999">
        <ele>392</ele>
        <time>2016-08-07T09:17:51Z</time>
      </trkpt>
      <trkpt lat="47.73183" lon="7.05979">
        <ele>391</ele>
        <time>2016-08-07T09:18:09Z</time>
      </trkpt>
      <trkpt lat="47.73166" lon="7.05956">
        <ele>394</ele>
        <time>2016-08-07T09:18:26Z</time>
      </trkpt>
      <trkpt lat="47.73154" lon="7.05937">
        <ele>396</ele>
        <time>2016-08-07T09:18:42Z</time>
      </trkpt>
      <trkpt lat="47.73143" lon="7.05921">
        <ele>395</ele>
        <time>2016-08-07T09:18:55Z</time>
      </trkpt>
      <trkpt lat="47.73136" lon="7.0591">
        <ele>392</ele>
        <time>2016-08-07T09:19:05Z</time>
      </trkpt>
      <trkpt lat="47.73127" lon="7.05885">
        <ele>398</ele>
        <time>2016-08-07T09:19:19Z</time>
      </trkpt>
      <trkpt lat="47.73122" lon="7.05851">
        <ele>402</ele>
        <time>2016-08-07T09:19:35Z</time>
      </trkpt>
      <trkpt lat="47.73119" lon="7.05839">
        <ele>404</ele>
        <time>2016-08-07T09:19:41Z</time>
      </trkpt>
      <trkpt lat="47.73114" lon="7.05825">
        <ele>408</ele>
        <time>2016-08-07T09:19:53Z</time>
      </trkpt>
      <trkpt lat="47.73109" lon="7.05801">
        <ele>410</ele>
        <time>2016-08-07T09:20:07Z</time>
      </trkpt>
      <trkpt lat="47.73105" lon="7.05778">
        <ele>405</ele>
        <time>2016-08-07T09:20:22Z</time>
      </trkpt>
      <trkpt lat="47.73103" lon="7.05756">
        <ele>405</ele>
        <time>2016-08-07T09:20:36Z</time>
      </trkpt>
      <trkpt lat="47.73099" lon="7.05729">
        <ele>407</ele>
        <time>2016-08-07T09:20:54Z</time>
      </trkpt>
      <trkpt lat="47.73098" lon="7.05702">
        <ele>408</ele>
        <time>2016-08-07T09:21:09Z</time>
      </trkpt>
      <trkpt lat="47.73096" lon="7.05692">
        <ele>408</ele>
        <time>2016-08-07T09:21:19Z</time>
      </trkpt>
      <trkpt lat="47.73096" lon="7.05669">
        <ele>410</ele>
        <time>2016-08-07T09:21:32Z</time>
      </trkpt>
      <trkpt lat="47.73095" lon="7.05647">
        <ele>414</ele>
        <time>2016-08-07T09:21:45Z</time>
      </trkpt>
      <trkpt lat="47.73096" lon="7.05624">
        <ele>415</ele>
        <time>2016-08-07T09:21:59Z</time>
      </trkpt>
      <trkpt lat="47.73097" lon="7.05598">
        <ele>416</ele>
        <time>2016-08-07T09:22:16Z</time>
      </trkpt>
      <trkpt lat="47.73099" lon="7.05573">
        <ele>415</ele>
        <time>2016-08-07T09:22:33Z</time>
      </trkpt>
      <trkpt lat="47.73098" lon="7.05548">
        <ele>416</ele>
        <time>2016-08-07T09:22:48Z</time>
      </trkpt>
      <trkpt lat="47.73098" lon="7.05548">
        <ele>416</ele>
        <time>2016-08-07T09:22:55Z</time>
      </trkpt>
      <trkpt lat="47.73098" lon="7.05529">
        <ele>417</ele>
        <time>2016-08-07T09:23:03Z</time>
      </trkpt>
      <trkpt lat="47.73092" lon="7.05501">
        <ele>417</ele>
        <time>2016-08-07T09:23:22Z</time>
      </trkpt>
      <trkpt lat="47.73092" lon="7.05501">
        <ele>417</ele>
        <time>2016-08-07T09:23:30Z</time>
      </trkpt>
      <trkpt lat="47.73086" lon="7.05491">
        <ele>418</ele>
        <time>2016-08-07T09:23:36Z</time>
      </trkpt>
      <trkpt lat="47.73081" lon="7.0547">
        <ele>419</ele>
        <time>2016-08-07T09:23:50Z</time>
      </trkpt>
      <trkpt lat="47.73074" lon="7.0545">
        <ele>418</ele>
        <time>2016-08-07T09:24:10Z</time>
      </trkpt>
      <trkpt lat="47.73068" lon="7.05433">
        <ele>421</ele>
        <time>2016-08-07T09:24:19Z</time>
      </trkpt>
      <trkpt lat="47.73064" lon="7.05419">
        <ele>423</ele>
        <time>2016-08-07T09:24:27Z</time>
      </trkpt>
      <trkpt lat="47.73057" lon="7.05396">
        <ele>427</ele>
        <time>2016-08-07T09:24:47Z</time>
      </trkpt>
      <trkpt lat="47.73051" lon="7.05371">
        <ele>427</ele>
        <time>2016-08-07T09:25:03Z</time>
      </trkpt>
      <trkpt lat="47.73051" lon="7.05371">
        <ele>427</ele>
        <time>2016-08-07T09:25:10Z</time>
      </trkpt>
      <trkpt lat="47.73055" lon="7.05353">
        <ele>429</ele>
        <time>2016-08-07T09:25:21Z</time>
      </trkpt>
      <trkpt lat="47.73048" lon="7.05324">
        <ele>425</ele>
        <time>2016-08-07T09:25:39Z</time>
      </trkpt>
      <trkpt lat="47.73055" lon="7.05306">
        <ele>428</ele>
        <time>2016-08-07T09:25:52Z</time>
      </trkpt>
      <trkpt lat="47.73071" lon="7.05282">
        <ele>429</ele>
        <time>2016-08-07T09:26:13Z</time>
      </trkpt>
      <trkpt lat="47.73081" lon="7.05271">
        <ele>431</ele>
        <time>2016-08-07T09:26:24Z</time>
      </trkpt>
      <trkpt lat="47.73099" lon="7.05253">
        <ele>431</ele>
        <time>2016-08-07T09:26:41Z</time>
      </trkpt>
      <trkpt lat="47.73111" lon="7.05242">
        <ele>430</ele>
        <time>2016-08-07T09:26:54Z</time>
      </trkpt>
      <trkpt lat="47.73125" lon="7.05228">
        <ele>433</ele>
        <time>2016-08-07T09:27:10Z</time>
      </trkpt>
      <trkpt lat="47.73125" lon="7.05228">
        <ele>380.2</ele>
        <time>2016-08-07T09:27:28Z</time>
      </trkpt>
      <trkpt lat="47.73125" lon="7.05228">
        <ele>380.2</ele>
        <time>2016-08-07T09:27:31Z</time>
      </trkpt>
    </trkseg>
  </trk>
</gpx>